createdAt,value
2023-01-10T00:00:14.380Z,0
2023-01-10T00:05:14.783Z,0
2023-01-10T00:10:14.441Z,0
2023-01-10T00:15:14.890Z,0
2023-01-10T00:20:15.265Z,0
2023-01-10T00:25:14.925Z,0
2023-01-10T00:30:14.438Z,0
2023-01-10T00:35:14.983Z,0
2023-01-10T00:40:14.472Z,0
2023-01-10T00:45:14.745Z,0
2023-01-10T00:50:15.043Z,0
2023-01-10T00:55:14.427Z,0
2023-01-10T01:00:14.828Z,0
2023-01-10T01:05:15.422Z,0
2023-01-10T01:10:15.011Z,0
2023-01-10T01:15:14.398Z,0
2023-01-10T01:20:14.768Z,0
2023-01-10T01:25:15.343Z,0
2023-01-10T01:30:14.635Z,0
2023-01-10T01:35:15.199Z,0
2023-01-10T01:40:14.565Z,0
2023-01-10T01:45:15.117Z,0
2023-01-10T01:50:15.252Z,0
2023-01-10T01:55:14.685Z,0
2023-01-10T02:00:15.100Z,0
2023-01-10T02:05:15.038Z,0
2023-01-10T02:10:14.600Z,0
2023-01-10T02:15:15.268Z,0
2023-01-10T02:20:14.576Z,0
2023-01-10T02:25:15.316Z,0
2023-01-10T02:30:14.583Z,0
2023-01-10T02:35:15.052Z,0
2023-01-10T02:40:14.406Z,0
2023-01-10T02:45:15.111Z,0
2023-01-10T02:50:14.966Z,0
2023-01-10T02:55:15.238Z,0
2023-01-10T03:00:15.340Z,0
2023-01-10T03:05:15.214Z,0
2023-01-10T03:10:15.215Z,0
2023-01-10T03:15:14.804Z,0
2023-01-10T03:20:15.320Z,0
2023-01-10T03:25:14.805Z,0
2023-01-10T03:30:14.654Z,0
2023-01-10T03:35:14.856Z,0
2023-01-10T03:40:14.521Z,0
2023-01-10T03:45:14.594Z,0
2023-01-10T03:50:14.562Z,0
2023-01-10T03:55:14.872Z,0
2023-01-10T04:00:14.943Z,0
2023-01-10T04:05:14.777Z,0
2023-01-10T04:10:15.232Z,0
2023-01-10T04:15:14.899Z,0
2023-01-10T04:20:15.008Z,0
2023-01-10T04:25:15.039Z,0
2023-01-10T04:30:14.492Z,0
2023-01-10T04:35:14.692Z,0
2023-01-10T04:40:15.309Z,0
2023-01-10T04:45:15.038Z,0
2023-01-10T04:50:14.695Z,0
2023-01-10T04:55:14.557Z,0
2023-01-10T05:00:15.075Z,0
2023-01-10T05:05:14.900Z,0
2023-01-10T05:10:15.126Z,0
2023-01-10T05:15:15.024Z,0
2023-01-10T05:20:15.389Z,0
2023-01-10T05:25:15.059Z,0
2023-01-10T05:30:15.434Z,0
2023-01-10T05:35:14.979Z,0
2023-01-10T05:40:15.510Z,0
2023-01-10T05:45:14.789Z,0
2023-01-10T05:50:15.163Z,0
2023-01-10T05:55:15.011Z,0
2023-01-10T06:00:15.347Z,0
2023-01-10T06:05:14.753Z,0
2023-01-10T06:10:15.134Z,0
2023-01-10T06:15:14.658Z,0
2023-01-10T06:20:14.566Z,0
2023-01-10T06:25:15.483Z,0
2023-01-10T06:30:14.727Z,0
2023-01-10T06:35:14.966Z,0
2023-01-10T06:40:15.295Z,0
2023-01-10T06:45:14.592Z,0
2023-01-10T06:50:14.903Z,0
2023-01-10T06:55:15.320Z,0
2023-01-10T07:00:15.306Z,0
2023-01-10T07:05:14.694Z,0
2023-01-10T07:10:14.582Z,0
2023-01-10T07:15:15.366Z,0
2023-01-10T07:20:14.867Z,0
2023-01-10T07:25:15.479Z,0
2023-01-10T07:30:14.838Z,0
2023-01-10T07:35:14.744Z,0
2023-01-10T07:40:15.342Z,4
2023-01-10T07:45:14.818Z,4
2023-01-10T07:50:15.669Z,8.2
2023-01-10T07:55:15.276Z,8.2
2023-01-10T08:00:17.910Z,12
2023-01-10T08:05:15.516Z,12
2023-01-10T08:10:14.995Z,14
2023-01-10T08:15:15.526Z,14
2023-01-10T08:20:14.853Z,18.9
2023-01-10T08:25:15.521Z,18.9
2023-01-10T08:30:14.973Z,22.2
2023-01-10T08:35:15.200Z,22.2
2023-01-10T08:40:15.614Z,27.3
2023-01-10T08:45:15.548Z,27.3
2023-01-10T08:50:15.025Z,29.7
2023-01-10T08:55:15.137Z,29.7
2023-01-10T09:00:14.823Z,34.2
2023-01-10T09:05:26.274Z,34.2
2023-01-10T09:10:15.358Z,41.7
2023-01-10T09:15:15.108Z,41.7
2023-01-10T09:20:15.103Z,45.2
2023-01-10T09:25:15.622Z,45.2
2023-01-10T09:30:15.182Z,51.1
2023-01-10T09:35:15.272Z,51.1
2023-01-10T09:40:15.735Z,74.2
2023-01-10T09:45:15.372Z,74.2
2023-01-10T09:50:14.860Z,44.3
2023-01-10T09:55:15.301Z,44.3
2023-01-10T10:00:15.672Z,51.2
2023-01-10T10:05:15.638Z,51.2
2023-01-10T10:10:14.760Z,46
2023-01-10T10:15:15.659Z,46
2023-01-10T10:20:14.963Z,40.3
2023-01-10T10:25:14.927Z,40.3
2023-01-10T10:30:15.764Z,31.9
2023-01-10T10:35:15.214Z,31.9
2023-01-10T10:40:15.591Z,42.7
2023-01-10T10:45:15.015Z,42.7
2023-01-10T10:50:14.913Z,60.3
2023-01-10T10:55:15.442Z,60.3
2023-01-10T11:00:15.415Z,46.9
2023-01-10T11:05:14.995Z,46.9
2023-01-10T11:10:15.002Z,24.6
2023-01-10T11:15:15.468Z,24.6
2023-01-10T11:20:15.500Z,21.3
2023-01-10T11:25:15.582Z,21.3
2023-01-10T11:30:15.574Z,24.5
2023-01-10T11:35:15.564Z,24.5
2023-01-10T11:40:15.152Z,33.1
2023-01-10T11:45:15.186Z,33.1
2023-01-10T11:50:15.498Z,30.2
2023-01-10T11:55:15.443Z,30.2
2023-01-10T12:00:15.368Z,29.1
2023-01-10T12:05:14.822Z,29.1
2023-01-10T12:10:14.911Z,32.4
2023-01-10T12:15:15.174Z,32.4
2023-01-10T12:20:15.169Z,31.1
2023-01-10T12:25:15.549Z,31.1
2023-01-10T12:30:15.030Z,37.3
2023-01-10T12:35:15.274Z,37.3
2023-01-10T12:40:14.860Z,39.7
2023-01-10T12:45:14.889Z,39.7
2023-01-10T12:50:15.637Z,45.1
2023-01-10T12:55:15.651Z,45.1
2023-01-10T13:00:15.720Z,45.4
2023-01-10T13:05:15.056Z,45.4
2023-01-10T13:10:15.223Z,43.3
2023-01-10T13:15:15.397Z,43.3
2023-01-10T13:20:15.155Z,26.1
2023-01-10T13:25:15.711Z,26.1
2023-01-10T13:30:15.605Z,36
2023-01-10T13:35:15.505Z,36
2023-01-10T13:40:15.108Z,31.4
2023-01-10T13:45:15.160Z,31.4
2023-01-10T13:50:15.201Z,32.8
2023-01-10T13:55:15.153Z,32.8
2023-01-10T14:00:14.984Z,37.5
2023-01-10T14:05:15.366Z,37.5
2023-01-10T14:10:15.687Z,26.2
2023-01-10T14:15:15.033Z,26.2
2023-01-10T14:20:14.992Z,25.6
2023-01-10T14:25:14.954Z,25.6
2023-01-10T14:30:15.211Z,13.6
2023-01-10T14:35:15.202Z,13.6
2023-01-10T14:40:15.750Z,5.7
2023-01-10T14:45:14.912Z,5.7
2023-01-10T14:50:14.976Z,7
2023-01-10T14:55:15.160Z,7
2023-01-10T15:00:17.477Z,7
2023-01-10T15:05:15.502Z,7
2023-01-10T15:10:15.867Z,0
2023-01-10T15:15:15.537Z,0
2023-01-10T15:20:15.056Z,0
2023-01-10T15:25:15.223Z,0
2023-01-10T15:30:15.211Z,0
2023-01-10T15:35:20.300Z,0
2023-01-10T15:40:15.236Z,0
2023-01-10T15:45:15.092Z,0
2023-01-10T15:50:15.403Z,0
2023-01-10T15:55:15.792Z,0
2023-01-10T16:00:15.676Z,0
2023-01-10T16:05:15.100Z,0
2023-01-10T16:10:15.238Z,0
2023-01-10T16:15:15.802Z,0
2023-01-10T16:20:15.152Z,0
2023-01-10T16:25:15.277Z,0
2023-01-10T16:30:15.188Z,0
2023-01-10T16:35:16.478Z,0
2023-01-10T16:40:15.109Z,0
2023-01-10T16:45:15.402Z,0
2023-01-10T16:50:15.620Z,0
2023-01-10T16:55:15.093Z,0
2023-01-10T17:00:15.121Z,0
2023-01-10T17:05:16.661Z,0
2023-01-10T17:10:15.837Z,0
2023-01-10T17:15:15.745Z,0
2023-01-10T17:20:15.840Z,0
2023-01-10T17:25:14.925Z,0
2023-01-10T17:30:15.330Z,0
2023-01-10T17:35:15.242Z,0
2023-01-10T17:40:15.267Z,0
2023-01-10T17:45:15.851Z,0
2023-01-10T17:50:15.662Z,0
2023-01-10T17:55:15.713Z,0
2023-01-10T18:00:15.620Z,0
2023-01-10T18:05:15.871Z,0
2023-01-10T18:10:15.890Z,0
2023-01-10T18:15:15.895Z,0
2023-01-10T18:20:15.900Z,0
2023-01-10T18:25:15.876Z,0
2023-01-10T18:30:16.169Z,0
2023-01-10T18:35:15.329Z,0
2023-01-10T18:40:15.798Z,0
2023-01-10T18:45:15.820Z,0
2023-01-10T18:50:15.433Z,0
2023-01-10T18:55:15.664Z,0
2023-01-10T19:00:15.545Z,0
2023-01-10T19:05:15.490Z,0
2023-01-10T19:10:15.558Z,0
2023-01-10T19:15:16.054Z,0
2023-01-10T19:20:15.628Z,0
2023-01-10T19:25:15.764Z,0
2023-01-10T19:30:15.146Z,0
2023-01-10T19:35:15.079Z,0
2023-01-10T19:40:15.536Z,0
2023-01-10T19:45:15.675Z,0
2023-01-10T19:50:15.596Z,0
2023-01-10T19:55:15.109Z,0
2023-01-10T20:00:15.322Z,0
2023-01-10T20:05:15.217Z,0
2023-01-10T20:10:15.619Z,0
2023-01-10T20:15:15.732Z,0
2023-01-10T20:20:15.074Z,0
2023-01-10T20:25:15.042Z,0
2023-01-10T20:30:16.063Z,0
2023-01-10T20:35:15.919Z,0
2023-01-10T20:40:15.882Z,0
2023-01-10T20:45:15.963Z,0
2023-01-10T20:50:15.927Z,0
2023-01-10T20:55:15.428Z,0
2023-01-10T21:00:15.706Z,0
2023-01-10T21:05:15.961Z,0
2023-01-10T21:10:16.039Z,0
2023-01-10T21:15:15.969Z,0
2023-01-10T21:20:15.573Z,0
2023-01-10T21:25:15.727Z,0
2023-01-10T21:30:16.077Z,0
2023-01-10T21:35:16.010Z,0
2023-01-10T21:40:16.008Z,0
2023-01-10T21:45:15.611Z,0
2023-01-10T21:50:15.688Z,0
2023-01-10T21:55:15.842Z,0
2023-01-10T22:00:16.026Z,0
2023-01-10T22:05:15.750Z,0
2023-01-10T22:10:16.091Z,0
2023-01-10T22:15:15.669Z,0
2023-01-10T22:20:15.903Z,0
2023-01-10T22:25:15.996Z,0
2023-01-10T22:30:16.000Z,0
2023-01-10T22:35:16.135Z,0
2023-01-10T22:40:15.645Z,0
2023-01-10T22:45:15.592Z,0
2023-01-10T22:50:15.678Z,0
2023-01-10T22:55:15.663Z,0
2023-01-10T23:00:15.570Z,0
2023-01-10T23:05:15.717Z,0
2023-01-10T23:10:29.167Z,0
2023-01-10T23:15:15.143Z,0
2023-01-10T23:20:15.145Z,0
2023-01-10T23:25:15.338Z,0
2023-01-10T23:30:16.049Z,0
2023-01-10T23:35:16.129Z,0
2023-01-10T23:40:16.092Z,0
2023-01-10T23:45:15.170Z,0
2023-01-10T23:50:16.216Z,0
2023-01-10T23:55:15.827Z,0
